sensor_id;sensor_type;location;lat;lon;timestamp;pressure;altitude;pressure_sealevel;temperature;humidity
51417;BME280;50158;51.528;6.982;2022-09-09T00:02:27;67900;;;14.03;100
51417;BME280;50158;51.528;6.982;2022-09-09T00:03:26;67900;;;14.08;100
51417;BME280;50158;51.528;6.982;2022-09-09T00:04:39;67890;;;14.02;100
51417;BME280;50158;51.528;6.982;2022-09-09T00:06:32;67890;;;14;100
51417;BME280;50158;51.528;6.982;2022-09-09T00:07:33;67890;;;13.98;100
51417;BME280;50158;51.528;6.982;2022-09-09T00:08:07;67890;;;13.99;100
51417;BME280;50158;51.528;6.982;2022-09-09T00:09:20;67900;;;14.06;100
51417;BME280;50158;51.528;6.982;2022-09-09T00:10:36;67900;;;14.06;100
51417;BME280;50158;51.528;6.982;2022-09-09T00:12:34;67910;;;14.14;100
51417;BME280;50158;51.528;6.982;2022-09-09T00:13:41;67900;;;14.11;100
51417;BME280;50158;51.528;6.982;2022-09-09T00:14:23;67900;;;14.1;100
51417;BME280;50158;51.528;6.982;2022-09-09T00:14:56;67900;;;14.04;100
51417;BME280;50158;51.528;6.982;2022-09-09T00:15:14;67900;;;14.09;100
51417;BME280;50158;51.528;6.982;2022-09-09T00:15:56;67900;;;14.07;100
51417;BME280;50158;51.528;6.982;2022-09-09T00:16:28;67900;;;14.04;100
51417;BME280;50158;51.528;6.982;2022-09-09T00:17:14;67910;;;14.18;100
51417;BME280;50158;51.528;6.982;2022-09-09T00:19:16;67910;;;14.13;100
51417;BME280;50158;51.528;6.982;2022-09-09T00:20:14;67900;;;14.07;100
51417;BME280;50158;51.528;6.982;2022-09-09T00:21:13;67910;;;14.16;100
51417;BME280;50158;51.528;6.982;2022-09-09T00:22:18;67900;;;14.11;100
51417;BME280;50158;51.528;6.982;2022-09-09T00:23:29;67900;;;14.07;100
51417;BME280;50158;51.528;6.982;2022-09-09T00:24:18;67900;;;14.06;100
51417;BME280;50158;51.528;6.982;2022-09-09T00:25:29;67910;;;14.17;100
51417;BME280;50158;51.528;6.982;2022-09-09T00:27:45;67910;;;14.18;100
51417;BME280;50158;51.528;6.982;2022-09-09T00:28:22;67900;;;14.11;100
51417;BME280;50158;51.528;6.982;2022-09-09T00:29:15;67910;;;14.16;100
51417;BME280;50158;51.528;6.982;2022-09-09T00:30:16;67910;;;14.16;100
51417;BME280;50158;51.528;6.982;2022-09-09T00:31:14;67900;;;14.1;100
51417;BME280;50158;51.528;6.982;2022-09-09T00:32:14;67900;;;14.11;100
51417;BME280;50158;51.528;6.982;2022-09-09T00:33:12;67900;;;14.04;100
51417;BME280;50158;51.528;6.982;2022-09-09T00:34:14;67900;;;14.08;100
51417;BME280;50158;51.528;6.982;2022-09-09T00:35:16;67910;;;14.14;100
51417;BME280;50158;51.528;6.982;2022-09-09T00:36:14;67910;;;14.18;100
51417;BME280;50158;51.528;6.982;2022-09-09T00:37:12;67910;;;14.14;100
51417;BME280;50158;51.528;6.982;2022-09-09T00:38:25;67900;;;14.1;100
51417;BME280;50158;51.528;6.982;2022-09-09T00:39:15;67900;;;14.05;100
51417;BME280;50158;51.528;6.982;2022-09-09T00:40:19;67890;;;13.99;100
51417;BME280;50158;51.528;6.982;2022-09-09T00:41:32;67890;;;14.02;100
51417;BME280;50158;51.528;6.982;2022-09-09T00:42:14;67890;;;14;100
51417;BME280;50158;51.528;6.982;2022-09-09T00:43:21;67890;;;13.95;100
51417;BME280;50158;51.528;6.982;2022-09-09T00:44:18;67880;;;13.94;100
51417;BME280;50158;51.528;6.982;2022-09-09T00:47:51;67880;;;13.91;100
51417;BME280;50158;51.528;6.982;2022-09-09T00:48:12;67880;;;13.9;100
51417;BME280;50158;51.528;6.982;2022-09-09T00:49:15;67880;;;13.9;100
51417;BME280;50158;51.528;6.982;2022-09-09T00:51:15;67880;;;13.9;100
51417;BME280;50158;51.528;6.982;2022-09-09T00:52:17;67890;;;13.97;100
51417;BME280;50158;51.528;6.982;2022-09-09T00:53:23;67890;;;13.97;100
51417;BME280;50158;51.528;6.982;2022-09-09T00:54:18;67890;;;13.96;100
51417;BME280;50158;51.528;6.982;2022-09-09T00:55:17;67890;;;14.01;100
51417;BME280;50158;51.528;6.982;2022-09-09T00:56:14;67900;;;14.05;100
51417;BME280;50158;51.528;6.982;2022-09-09T00:57:25;67890;;;14.03;100
51417;BME280;50158;51.528;6.982;2022-09-09T00:58:12;67900;;;14.05;100
51417;BME280;50158;51.528;6.982;2022-09-09T00:59:24;67900;;;14.04;100
51417;BME280;50158;51.528;6.982;2022-09-09T01:00:21;67900;;;14.04;100
51417;BME280;50158;51.528;6.982;2022-09-09T01:01:12;67900;;;14.05;100
51417;BME280;50158;51.528;6.982;2022-09-09T01:02:21;67900;;;14.06;100
51417;BME280;50158;51.528;6.982;2022-09-09T01:03:18;67910;;;14.14;100
51417;BME280;50158;51.528;6.982;2022-09-09T01:04:13;67910;;;14.2;100
51417;BME280;50158;51.528;6.982;2022-09-09T01:05:17;67910;;;14.15;100
51417;BME280;50158;51.528;6.982;2022-09-09T01:06:44;67910;;;14.16;100
51417;BME280;50158;51.528;6.982;2022-09-09T01:07:17;67920;;;14.27;100
51417;BME280;50158;51.528;6.982;2022-09-09T01:09:17;67920;;;14.26;100
51417;BME280;50158;51.528;6.982;2022-09-09T01:09:18;67920;;;14.22;100
51417;BME280;50158;51.528;6.982;2022-09-09T01:10:47;67920;;;14.22;100
51417;BME280;50158;51.528;6.982;2022-09-09T01:11:16;67920;;;14.22;100
51417;BME280;50158;51.528;6.982;2022-09-09T01:12:17;67910;;;14.19;100
51417;BME280;50158;51.528;6.982;2022-09-09T01:13:15;67910;;;14.19;100
51417;BME280;50158;51.528;6.982;2022-09-09T01:15:19;67910;;;14.18;100
51417;BME280;50158;51.528;6.982;2022-09-09T01:16:12;67920;;;14.27;100
51417;BME280;50158;51.528;6.982;2022-09-09T01:17:15;67930;;;14.33;100
51417;BME280;50158;51.528;6.982;2022-09-09T01:18:13;67930;;;14.34;100
51417;BME280;50158;51.528;6.982;2022-09-09T01:19:15;67930;;;14.36;100
51417;BME280;50158;51.528;6.982;2022-09-09T01:20:14;67930;;;14.33;100
51417;BME280;50158;51.528;6.982;2022-09-09T01:21:47;67930;;;14.36;100
51417;BME280;50158;51.528;6.982;2022-09-09T01:22:16;67930;;;14.36;100
51417;BME280;50158;51.528;6.982;2022-09-09T01:23:26;67920;;;14.29;100
51417;BME280;50158;51.528;6.982;2022-09-09T01:24:42;67930;;;14.37;100
51417;BME280;50158;51.528;6.982;2022-09-09T01:25:22;67920;;;14.3;100
51417;BME280;50158;51.528;6.982;2022-09-09T01:26:15;67920;;;14.3;100
51417;BME280;50158;51.528;6.982;2022-09-09T01:27:12;67930;;;14.35;100
51417;BME280;50158;51.528;6.982;2022-09-09T01:28:14;67920;;;14.23;100
51417;BME280;50158;51.528;6.982;2022-09-09T01:29:13;67910;;;14.21;100
51417;BME280;50158;51.528;6.982;2022-09-09T01:30:13;67920;;;14.22;100
51417;BME280;50158;51.528;6.982;2022-09-09T01:31:14;67910;;;14.19;100
51417;BME280;50158;51.528;6.982;2022-09-09T01:32:45;67910;;;14.15;100
51417;BME280;50158;51.528;6.982;2022-09-09T01:33:13;67910;;;14.16;100
51417;BME280;50158;51.528;6.982;2022-09-09T01:34:13;67900;;;14.1;100
51417;BME280;50158;51.528;6.982;2022-09-09T01:35:15;67900;;;14.08;100
51417;BME280;50158;51.528;6.982;2022-09-09T01:36:15;67900;;;14.06;100
51417;BME280;50158;51.528;6.982;2022-09-09T01:37:12;67890;;;14.04;100
51417;BME280;50158;51.528;6.982;2022-09-09T01:38:12;67890;;;14.02;100
51417;BME280;50158;51.528;6.982;2022-09-09T01:39:12;67890;;;14.04;100
51417;BME280;50158;51.528;6.982;2022-09-09T01:40:12;67890;;;13.97;100
51417;BME280;50158;51.528;6.982;2022-09-09T01:41:12;67890;;;13.99;100
51417;BME280;50158;51.528;6.982;2022-09-09T01:42:13;67890;;;13.97;100
51417;BME280;50158;51.528;6.982;2022-09-09T01:43:13;67890;;;13.98;100
51417;BME280;50158;51.528;6.982;2022-09-09T01:44:12;67890;;;13.97;100
51417;BME280;50158;51.528;6.982;2022-09-09T01:45:12;67890;;;13.96;100
51417;BME280;50158;51.528;6.982;2022-09-09T01:46:12;67890;;;13.99;100
51417;BME280;50158;51.528;6.982;2022-09-09T01:47:13;67890;;;14.02;100
51417;BME280;50158;51.528;6.982;2022-09-09T01:48:12;67890;;;14.03;100
51417;BME280;50158;51.528;6.982;2022-09-09T01:49:12;67890;;;14.03;100
51417;BME280;50158;51.528;6.982;2022-09-09T01:50:13;67900;;;14.04;100
51417;BME280;50158;51.528;6.982;2022-09-09T01:51:12;67900;;;14.04;100
51417;BME280;50158;51.528;6.982;2022-09-09T01:52:12;67900;;;14.05;100
51417;BME280;50158;51.528;6.982;2022-09-09T01:53:13;67900;;;14.04;100
51417;BME280;50158;51.528;6.982;2022-09-09T01:54:12;67890;;;14;100
51417;BME280;50158;51.528;6.982;2022-09-09T01:55:12;67880;;;13.93;100
51417;BME280;50158;51.528;6.982;2022-09-09T01:56:32;67890;;;13.96;100
51417;BME280;50158;51.528;6.982;2022-09-09T01:57:19;67890;;;13.94;100
51417;BME280;50158;51.528;6.982;2022-09-09T01:58:17;67890;;;13.97;100
51417;BME280;50158;51.528;6.982;2022-09-09T01:59:17;67890;;;13.97;100
51417;BME280;50158;51.528;6.982;2022-09-09T02:00:13;67890;;;13.96;100
51417;BME280;50158;51.528;6.982;2022-09-09T02:02:48;67890;;;13.99;100
51417;BME280;50158;51.528;6.982;2022-09-09T02:03:23;67890;;;13.96;100
51417;BME280;50158;51.528;6.982;2022-09-09T02:04:19;67890;;;13.95;100
51417;BME280;50158;51.528;6.982;2022-09-09T02:05:17;67890;;;13.96;100
51417;BME280;50158;51.528;6.982;2022-09-09T02:06:17;67890;;;14.01;100
51417;BME280;50158;51.528;6.982;2022-09-09T02:07:19;67890;;;13.96;100
51417;BME280;50158;51.528;6.982;2022-09-09T02:08:20;67890;;;13.99;100
51417;BME280;50158;51.528;6.982;2022-09-09T02:09:12;67890;;;13.96;100
51417;BME280;50158;51.528;6.982;2022-09-09T02:10:17;67890;;;13.94;100
51417;BME280;50158;51.528;6.982;2022-09-09T02:11:13;67880;;;13.93;100
51417;BME280;50158;51.528;6.982;2022-09-09T02:12:13;67890;;;14.02;100
51417;BME280;50158;51.528;6.982;2022-09-09T02:13:14;67900;;;14.09;100
51417;BME280;50158;51.528;6.982;2022-09-09T02:14:14;67890;;;14.04;100
51417;BME280;50158;51.528;6.982;2022-09-09T02:15:32;67890;;;13.99;100
51417;BME280;50158;51.528;6.982;2022-09-09T02:16:18;67890;;;13.99;100
51417;BME280;50158;51.528;6.982;2022-09-09T02:17:13;67890;;;13.99;100
51417;BME280;50158;51.528;6.982;2022-09-09T02:18:13;67890;;;14.01;100
51417;BME280;50158;51.528;6.982;2022-09-09T02:19:29;67890;;;14.01;100
51417;BME280;50158;51.528;6.982;2022-09-09T02:20:13;67890;;;14.03;100
51417;BME280;50158;51.528;6.982;2022-09-09T02:21:12;67900;;;14.03;100
51417;BME280;50158;51.528;6.982;2022-09-09T02:23:13;67900;;;14.07;100
51417;BME280;50158;51.528;6.982;2022-09-09T02:24:13;67900;;;14.08;100
51417;BME280;50158;51.528;6.982;2022-09-09T02:25:13;67900;;;14.11;100
51417;BME280;50158;51.528;6.982;2022-09-09T02:26:13;67910;;;14.14;100
51417;BME280;50158;51.528;6.982;2022-09-09T02:27:12;67910;;;14.15;100
51417;BME280;50158;51.528;6.982;2022-09-09T02:28:13;67910;;;14.15;100
51417;BME280;50158;51.528;6.982;2022-09-09T02:29:22;67910;;;14.19;100
51417;BME280;50158;51.528;6.982;2022-09-09T02:30:12;67910;;;14.21;100
51417;BME280;50158;51.528;6.982;2022-09-09T02:31:13;67920;;;14.23;100
51417;BME280;50158;51.528;6.982;2022-09-09T02:32:14;67920;;;14.3;100
51417;BME280;50158;51.528;6.982;2022-09-09T02:33:12;67920;;;14.29;100
51417;BME280;50158;51.528;6.982;2022-09-09T02:34:13;67930;;;14.34;100
51417;BME280;50158;51.528;6.982;2022-09-09T02:35:14;67930;;;14.33;100
51417;BME280;50158;51.528;6.982;2022-09-09T02:36:12;67930;;;14.34;100
51417;BME280;50158;51.528;6.982;2022-09-09T02:37:12;67930;;;14.37;100
51417;BME280;50158;51.528;6.982;2022-09-09T02:38:13;67930;;;14.35;100
51417;BME280;50158;51.528;6.982;2022-09-09T02:39:12;67930;;;14.36;100
51417;BME280;50158;51.528;6.982;2022-09-09T02:40:13;67930;;;14.39;100
51417;BME280;50158;51.528;6.982;2022-09-09T02:41:12;67930;;;14.39;100
51417;BME280;50158;51.528;6.982;2022-09-09T02:42:12;67940;;;14.41;100
51417;BME280;50158;51.528;6.982;2022-09-09T02:43:13;67940;;;14.47;100
51417;BME280;50158;51.528;6.982;2022-09-09T02:44:13;67950;;;14.51;100
51417;BME280;50158;51.528;6.982;2022-09-09T02:46:32;67940;;;14.44;100
51417;BME280;50158;51.528;6.982;2022-09-09T02:47:33;67940;;;14.45;100
51417;BME280;50158;51.528;6.982;2022-09-09T02:48:14;67930;;;14.38;100
51417;BME280;50158;51.528;6.982;2022-09-09T02:49:25;67930;;;14.39;100
51417;BME280;50158;51.528;6.982;2022-09-09T02:50:14;67930;;;14.38;100
51417;BME280;50158;51.528;6.982;2022-09-09T02:51:15;67930;;;14.37;100
51417;BME280;50158;51.528;6.982;2022-09-09T02:52:14;67930;;;14.37;100
51417;BME280;50158;51.528;6.982;2022-09-09T02:53:16;67940;;;14.42;100
51417;BME280;50158;51.528;6.982;2022-09-09T02:54:16;67940;;;14.47;100
51417;BME280;50158;51.528;6.982;2022-09-09T02:55:17;67940;;;14.43;100
51417;BME280;50158;51.528;6.982;2022-09-09T02:56:14;67950;;;14.5;100
51417;BME280;50158;51.528;6.982;2022-09-09T02:57:16;67940;;;14.47;100
51417;BME280;50158;51.528;6.982;2022-09-09T02:58:13;67940;;;14.5;100
51417;BME280;50158;51.528;6.982;2022-09-09T02:59:12;67950;;;14.5;100
51417;BME280;50158;51.528;6.982;2022-09-09T03:00:13;67950;;;14.52;100
51417;BME280;50158;51.528;6.982;2022-09-09T03:01:12;67950;;;14.53;100
51417;BME280;50158;51.528;6.982;2022-09-09T03:02:12;67950;;;14.57;100
51417;BME280;50158;51.528;6.982;2022-09-09T03:03:12;67950;;;14.51;100
51417;BME280;50158;51.528;6.982;2022-09-09T03:05:12;67950;;;14.54;100
51417;BME280;50158;51.528;6.982;2022-09-09T03:06:12;67950;;;14.52;100
51417;BME280;50158;51.528;6.982;2022-09-09T03:07:12;67960;;;14.59;100
51417;BME280;50158;51.528;6.982;2022-09-09T03:09:12;67950;;;14.51;100
51417;BME280;50158;51.528;6.982;2022-09-09T03:10:32;67940;;;14.5;100
51417;BME280;50158;51.528;6.982;2022-09-09T03:11:45;67940;;;14.45;100
51417;BME280;50158;51.528;6.982;2022-09-09T03:12:59;67940;;;14.43;100
51417;BME280;50158;51.528;6.982;2022-09-09T03:14:13;67940;;;14.42;100
51417;BME280;50158;51.528;6.982;2022-09-09T03:15:52;67930;;;14.37;100
51417;BME280;50158;51.528;6.982;2022-09-09T03:16:11;67930;;;14.37;100
51417;BME280;50158;51.528;6.982;2022-09-09T03:16:48;67930;;;14.32;100
51417;BME280;50158;51.528;6.982;2022-09-09T03:17:25;67920;;;14.28;100
51417;BME280;50158;51.528;6.982;2022-09-09T03:18:12;67920;;;14.28;100
51417;BME280;50158;51.528;6.982;2022-09-09T03:20:12;67910;;;14.21;100
51417;BME280;50158;51.528;6.982;2022-09-09T03:21:12;67910;;;14.16;100
51417;BME280;50158;51.528;6.982;2022-09-09T03:22:12;67910;;;14.14;100
51417;BME280;50158;51.528;6.982;2022-09-09T03:23:12;67910;;;14.18;100
51417;BME280;50158;51.528;6.982;2022-09-09T03:24:13;67910;;;14.13;100
51417;BME280;50158;51.528;6.982;2022-09-09T03:25:12;67910;;;14.15;100
51417;BME280;50158;51.528;6.982;2022-09-09T03:26:12;67900;;;14.1;100
51417;BME280;50158;51.528;6.982;2022-09-09T03:27:12;67890;;;14.03;100
51417;BME280;50158;51.528;6.982;2022-09-09T03:28:12;67890;;;13.98;100
51417;BME280;50158;51.528;6.982;2022-09-09T03:29:12;67890;;;13.97;100
51417;BME280;50158;51.528;6.982;2022-09-09T03:30:12;67890;;;14;100
51417;BME280;50158;51.528;6.982;2022-09-09T03:31:12;67890;;;14;100
51417;BME280;50158;51.528;6.982;2022-09-09T03:32:13;67890;;;13.97;100
51417;BME280;50158;51.528;6.982;2022-09-09T03:33:12;67890;;;13.96;100
51417;BME280;50158;51.528;6.982;2022-09-09T03:34:12;67890;;;13.95;100
51417;BME280;50158;51.528;6.982;2022-09-09T03:35:12;67900;;;14.05;100
51417;BME280;50158;51.528;6.982;2022-09-09T03:36:13;67900;;;14.05;100
51417;BME280;50158;51.528;6.982;2022-09-09T03:37:12;67890;;;14;100
51417;BME280;50158;51.528;6.982;2022-09-09T03:38:12;67890;;;14.01;100
51417;BME280;50158;51.528;6.982;2022-09-09T03:39:12;67900;;;14.05;100
51417;BME280;50158;51.528;6.982;2022-09-09T03:40:13;67900;;;14.06;100
51417;BME280;50158;51.528;6.982;2022-09-09T03:41:12;67900;;;14.1;100
51417;BME280;50158;51.528;6.982;2022-09-09T03:42:13;67900;;;14.05;100
51417;BME280;50158;51.528;6.982;2022-09-09T03:44:12;67890;;;14.02;100
51417;BME280;50158;51.528;6.982;2022-09-09T03:45:12;67890;;;14;100
51417;BME280;50158;51.528;6.982;2022-09-09T03:46:12;67890;;;14.01;100
51417;BME280;50158;51.528;6.982;2022-09-09T03:47:12;67890;;;14.03;100
51417;BME280;50158;51.528;6.982;2022-09-09T03:48:13;67900;;;14.08;100
51417;BME280;50158;51.528;6.982;2022-09-09T03:49:12;67900;;;14.06;100
51417;BME280;50158;51.528;6.982;2022-09-09T03:50:12;67900;;;14.07;100
51417;BME280;50158;51.528;6.982;2022-09-09T03:51:13;67900;;;14.08;100
51417;BME280;50158;51.528;6.982;2022-09-09T03:52:12;67900;;;14.08;100
51417;BME280;50158;51.528;6.982;2022-09-09T03:53:13;67900;;;14.11;100
51417;BME280;50158;51.528;6.982;2022-09-09T03:55:12;67910;;;14.15;100
51417;BME280;50158;51.528;6.982;2022-09-09T03:56:31;67910;;;14.19;100
51417;BME280;50158;51.528;6.982;2022-09-09T03:57:45;67910;;;14.19;100
51417;BME280;50158;51.528;6.982;2022-09-09T03:58:59;67910;;;14.2;100
51417;BME280;50158;51.528;6.982;2022-09-09T04:00:13;67910;;;14.17;100
51417;BME280;50158;51.528;6.982;2022-09-09T04:01:10;67910;;;14.2;100
51417;BME280;50158;51.528;6.982;2022-09-09T04:02:25;67910;;;14.16;100
51417;BME280;50158;51.528;6.982;2022-09-09T04:03:39;67900;;;14.11;100
51417;BME280;50158;51.528;6.982;2022-09-09T04:05:30;67900;;;14.1;100
51417;BME280;50158;51.528;6.982;2022-09-09T04:07:03;67900;;;14.09;100
51417;BME280;50158;51.528;6.982;2022-09-09T04:07:21;67900;;;14.1;100
51417;BME280;50158;51.528;6.982;2022-09-09T04:08:01;67900;;;14.04;100
51417;BME280;50158;51.528;6.982;2022-09-09T04:08:38;67890;;;14.01;100
51417;BME280;50158;51.528;6.982;2022-09-09T04:09:15;67890;;;14.03;100
51417;BME280;50158;51.528;6.982;2022-09-09T04:10:12;67900;;;14.05;100
51417;BME280;50158;51.528;6.982;2022-09-09T04:11:12;67890;;;14.02;100
51417;BME280;50158;51.528;6.982;2022-09-09T04:12:12;67900;;;14.06;100
51417;BME280;50158;51.528;6.982;2022-09-09T04:13:13;67910;;;14.15;100
51417;BME280;50158;51.528;6.982;2022-09-09T04:14:13;67910;;;14.16;100
51417;BME280;50158;51.528;6.982;2022-09-09T04:15:12;67900;;;14.1;100
51417;BME280;50158;51.528;6.982;2022-09-09T04:16:13;67900;;;14.1;100
51417;BME280;50158;51.528;6.982;2022-09-09T04:17:12;67900;;;14.09;100
51417;BME280;50158;51.528;6.982;2022-09-09T04:18:12;67900;;;14.12;100
51417;BME280;50158;51.528;6.982;2022-09-09T04:19:12;67900;;;14.08;100
51417;BME280;50158;51.528;6.982;2022-09-09T04:20:12;67910;;;14.2;100
51417;BME280;50158;51.528;6.982;2022-09-09T04:21:13;67900;;;14.13;100
51417;BME280;50158;51.528;6.982;2022-09-09T04:22:12;67900;;;14.12;100
51417;BME280;50158;51.528;6.982;2022-09-09T04:23:13;67900;;;14.1;100
51417;BME280;50158;51.528;6.982;2022-09-09T04:24:12;67900;;;14.13;100
51417;BME280;50158;51.528;6.982;2022-09-09T04:25:13;67900;;;14.1;100
51417;BME280;50158;51.528;6.982;2022-09-09T04:26:12;67910;;;14.13;100
51417;BME280;50158;51.528;6.982;2022-09-09T04:27:31;67900;;;14.12;100
51417;BME280;50158;51.528;6.982;2022-09-09T04:28:47;67910;;;14.18;100
51417;BME280;50158;51.528;6.982;2022-09-09T04:30:01;67910;;;14.16;100
51417;BME280;50158;51.528;6.982;2022-09-09T04:31:17;67910;;;14.16;100
51417;BME280;50158;51.528;6.982;2022-09-09T04:32:29;67910;;;14.21;100
51417;BME280;50158;51.528;6.982;2022-09-09T04:33:09;67920;;;14.27;100
51417;BME280;50158;51.528;6.982;2022-09-09T04:33:46;67910;;;14.2;100
51417;BME280;50158;51.528;6.982;2022-09-09T04:34:25;67910;;;14.22;100
51417;BME280;50158;51.528;6.982;2022-09-09T04:35:13;67920;;;14.3;100
51417;BME280;50158;51.528;6.982;2022-09-09T04:36:13;67920;;;14.27;100
51417;BME280;50158;51.528;6.982;2022-09-09T04:37:13;67920;;;14.3;100
51417;BME280;50158;51.528;6.982;2022-09-09T04:38:12;67920;;;14.25;100
51417;BME280;50158;51.528;6.982;2022-09-09T04:39:25;67920;;;14.24;100
51417;BME280;50158;51.528;6.982;2022-09-09T04:40:12;67920;;;14.26;100
51417;BME280;50158;51.528;6.982;2022-09-09T04:41:12;67920;;;14.23;100
51417;BME280;50158;51.528;6.982;2022-09-09T04:42:12;67910;;;14.2;100
51417;BME280;50158;51.528;6.982;2022-09-09T04:43:13;67920;;;14.26;100
51417;BME280;50158;51.528;6.982;2022-09-09T04:44:12;67920;;;14.27;100
51417;BME280;50158;51.528;6.982;2022-09-09T04:45:12;67920;;;14.31;100
51417;BME280;50158;51.528;6.982;2022-09-09T04:46:13;67930;;;14.37;100
51417;BME280;50158;51.528;6.982;2022-09-09T04:48:12;67940;;;14.4;100
51417;BME280;50158;51.528;6.982;2022-09-09T04:49:12;67940;;;14.44;100
51417;BME280;50158;51.528;6.982;2022-09-09T04:50:12;67940;;;14.48;100
51417;BME280;50158;51.528;6.982;2022-09-09T04:52:12;67940;;;14.47;100
51417;BME280;50158;51.528;6.982;2022-09-09T04:53:31;67950;;;14.55;100
51417;BME280;50158;51.528;6.982;2022-09-09T04:54:45;67960;;;14.62;100
51417;BME280;50158;51.528;6.982;2022-09-09T04:56:08;67960;;;14.59;100
51417;BME280;50158;51.528;6.982;2022-09-09T04:57:13;67950;;;14.55;100
51417;BME280;50158;51.528;6.982;2022-09-09T04:58:27;67950;;;14.56;100
51417;BME280;50158;51.528;6.982;2022-09-09T04:59:06;67950;;;14.58;100
51417;BME280;50158;51.528;6.982;2022-09-09T04:59:44;67950;;;14.58;100
51417;BME280;50158;51.528;6.982;2022-09-09T05:00:21;67960;;;14.68;100
51417;BME280;50158;51.528;6.982;2022-09-09T05:01:13;67960;;;14.68;100
51417;BME280;50158;51.528;6.982;2022-09-09T05:02:12;67960;;;14.69;100
51417;BME280;50158;51.528;6.982;2022-09-09T05:03:12;67960;;;14.68;100
51417;BME280;50158;51.528;6.982;2022-09-09T05:04:13;67980;;;14.77;100
51417;BME280;50158;51.528;6.982;2022-09-09T05:05:12;67970;;;14.75;100
51417;BME280;50158;51.528;6.982;2022-09-09T05:06:14;67960;;;14.66;100
51417;BME280;50158;51.528;6.982;2022-09-09T05:07:13;67970;;;14.71;100
51417;BME280;50158;51.528;6.982;2022-09-09T05:08:12;67970;;;14.71;100
51417;BME280;50158;51.528;6.982;2022-09-09T05:09:12;67970;;;14.71;100
51417;BME280;50158;51.528;6.982;2022-09-09T05:10:12;67970;;;14.71;100
51417;BME280;50158;51.528;6.982;2022-09-09T05:11:14;67960;;;14.62;100
51417;BME280;50158;51.528;6.982;2022-09-09T05:12:12;67960;;;14.63;100
51417;BME280;50158;51.528;6.982;2022-09-09T05:13:12;67970;;;14.73;100
51417;BME280;50158;51.528;6.982;2022-09-09T05:14:12;67970;;;14.71;100
51417;BME280;50158;51.528;6.982;2022-09-09T05:15:12;67970;;;14.69;100
51417;BME280;50158;51.528;6.982;2022-09-09T05:16:13;67970;;;14.68;100
51417;BME280;50158;51.528;6.982;2022-09-09T05:17:31;67970;;;14.71;100
51417;BME280;50158;51.528;6.982;2022-09-09T05:18:45;67980;;;14.8;100
51417;BME280;50158;51.528;6.982;2022-09-09T05:19:59;67970;;;14.75;100
51417;BME280;50158;51.528;6.982;2022-09-09T05:22:28;67970;;;14.72;100
51417;BME280;50158;51.528;6.982;2022-09-09T05:23:42;67970;;;14.76;100
51417;BME280;50158;51.528;6.982;2022-09-09T05:24:56;67970;;;14.7;100
51417;BME280;50158;51.528;6.982;2022-09-09T05:26:47;67970;;;14.71;100
51417;BME280;50158;51.528;6.982;2022-09-09T05:28:38;67980;;;14.86;100
51417;BME280;50158;51.528;6.982;2022-09-09T05:33:35;67990;;;14.9;100
51417;BME280;50158;51.528;6.982;2022-09-09T05:38:31;67990;;;14.88;100
51417;BME280;50158;51.528;6.982;2022-09-09T05:39:08;67990;;;14.88;100
51417;BME280;50158;51.528;6.982;2022-09-09T05:39:50;67990;;;14.92;100
51417;BME280;50158;51.528;6.982;2022-09-09T05:40:27;67990;;;14.91;100
51417;BME280;50158;51.528;6.982;2022-09-09T05:41:33;68000;;;14.97;100
51417;BME280;50158;51.528;6.982;2022-09-09T05:42:47;68000;;;14.98;100
51417;BME280;50158;51.528;6.982;2022-09-09T05:44:01;67990;;;14.92;100
51417;BME280;50158;51.528;6.982;2022-09-09T05:45:23;68000;;;14.98;100
51417;BME280;50158;51.528;6.982;2022-09-09T05:46:02;67980;;;14.86;100
51417;BME280;50158;51.528;6.982;2022-09-09T05:47:14;67990;;;14.93;100
51417;BME280;50158;51.528;6.982;2022-09-09T05:47:51;68000;;;15;100
51417;BME280;50158;51.528;6.982;2022-09-09T05:49:05;67990;;;14.87;100
51417;BME280;50158;51.528;6.982;2022-09-09T05:52:11;67990;;;14.93;100
51417;BME280;50158;51.528;6.982;2022-09-09T05:53:26;68000;;;15.04;100
51417;BME280;50158;51.528;6.982;2022-09-09T05:59:36;68010;;;15.07;100
51417;BME280;50158;51.528;6.982;2022-09-09T06:04:32;68000;;;15.04;100
51417;BME280;50158;51.528;6.982;2022-09-09T06:05:09;68000;;;15.04;100
51417;BME280;50158;51.528;6.982;2022-09-09T06:05:46;68000;;;14.96;100
51417;BME280;50158;51.528;6.982;2022-09-09T06:07:00;68010;;;15.08;100
51417;BME280;50158;51.528;6.982;2022-09-09T06:08:14;68000;;;15.04;100
51417;BME280;50158;51.528;6.982;2022-09-09T06:08:52;68010;;;15.09;100
51417;BME280;50158;51.528;6.982;2022-09-09T06:10:06;68010;;;15.07;100
51417;BME280;50158;51.528;6.982;2022-09-09T06:10:43;68010;;;15.07;100
51417;BME280;50158;51.528;6.982;2022-09-09T06:11:57;68020;;;15.16;100
51417;BME280;50158;51.528;6.982;2022-09-09T06:13:11;68010;;;15.11;100
51417;BME280;50158;51.528;6.982;2022-09-09T06:13:48;68010;;;15.12;100
51417;BME280;50158;51.528;6.982;2022-09-09T06:18:07;68030;;;15.32;100
51417;BME280;50158;51.528;6.982;2022-09-09T06:22:27;68070;;;15.69;100
51417;BME280;50158;51.528;6.982;2022-09-09T06:23:41;68070;;;15.62;100
51417;BME280;50158;51.528;6.982;2022-09-09T06:28:00;68020;;;15.16;100
51417;BME280;50158;51.528;6.982;2022-09-09T06:29:14;68060;;;15.59;100
51417;BME280;50158;51.528;6.982;2022-09-09T06:29:52;68060;;;15.6;100
51417;BME280;50158;51.528;6.982;2022-09-09T06:31:07;68060;;;15.6;100
51417;BME280;50158;51.528;6.982;2022-09-09T06:31:43;68060;;;15.6;100
51417;BME280;50158;51.528;6.982;2022-09-09T06:32:57;68060;;;15.56;100